Time;durP1;ratioP1;P1;durP2;ratioP2;P2;SDS_P1;SDS_P2;PMS_P1;PMS_P2;Temp;Humidity;BMP_temperature;BMP_pressure;BME280_temperature;BME280_humidity;BME280_pressure;Samples;Min_cycle;Max_cycle;Signal;HPM_P1;HPM_P2
2024/02/24 00:00:44;;;;;;;8.48;1.95;;;11.10;96.70;;;;;;5066241;28;20067;-70
2024/02/24 00:03:13;;;;;;;9.30;1.90;;;11.10;96.70;;;;;;5074889;28;20076;-70
2024/02/24 00:05:42;;;;;;;11.07;2.55;;;11.10;96.70;;;;;;5066963;28;20048;-70
2024/02/24 00:08:12;;;;;;;7.80;2.20;;;10.90;96.70;;;;;;5066467;28;20052;-71
2024/02/24 00:10:42;;;;;;;9.95;2.30;;;10.80;96.70;;;;;;5083529;28;20040;-71
2024/02/24 00:13:11;;;;;;;9.57;2.20;;;10.80;96.70;;;;;;5066963;28;20146;-71
2024/02/24 00:15:42;;;;;;;15.77;3.60;;;10.80;96.70;;;;;;5049308;28;20047;-71
2024/02/24 00:18:12;;;;;;;12.82;1.92;;;10.90;96.70;;;;;;5082317;28;20083;-70
2024/02/24 00:20:40;;;;;;;11.35;2.30;;;10.90;96.70;;;;;;5065975;28;20052;-70
2024/02/24 00:23:12;;;;;;;13.32;4.22;;;10.90;96.70;;;;;;5065940;28;20102;-70
2024/02/24 00:25:40;;;;;;;12.40;2.10;;;10.90;96.70;;;;;;5065145;28;20055;-70
2024/02/24 00:28:09;;;;;;;7.47;1.70;;;10.80;96.70;;;;;;5099208;28;20054;-71
2024/02/24 00:30:38;;;;;;;8.52;1.90;;;10.80;96.70;;;;;;5066098;28;20074;-70
2024/02/24 00:33:08;;;;;;;11.40;1.65;;;10.80;96.70;;;;;;5082627;28;20151;-70
2024/02/24 00:35:38;;;;;;;13.10;1.92;;;10.80;96.70;;;;;;5065877;28;20532;-71
2024/02/24 00:38:07;;;;;;;14.68;2.50;;;10.90;96.70;;;;;;5050489;28;20055;-70
2024/02/24 00:40:38;;;;;;;14.00;3.20;;;10.80;96.70;;;;;;5066639;28;20051;-70
2024/02/24 00:43:07;;;;;;;26.23;7.55;;;10.90;96.70;;;;;;5099734;28;20131;-70
2024/02/24 00:45:36;;;;;;;14.88;5.50;;;10.90;96.70;;;;;;5066183;28;20052;-70
2024/02/24 00:48:05;;;;;;;11.23;3.03;;;10.80;96.70;;;;;;5065233;28;20167;-70
2024/02/24 00:50:34;;;;;;;13.48;4.45;;;10.80;96.70;;;;;;5064541;28;20050;-70
2024/02/24 00:53:03;;;;;;;11.98;2.78;;;10.80;96.70;;;;;;5049145;28;20067;-70
2024/02/24 00:55:32;;;;;;;12.27;2.15;;;10.90;96.70;;;;;;5064671;28;20386;-70
2024/02/24 00:58:04;;;;;;;7.75;1.88;;;10.90;96.70;;;;;;5065189;28;20873;-70
2024/02/24 01:00:32;;;;;;;6.72;1.25;;;10.90;96.70;;;;;;5065316;28;20135;-70
2024/02/24 01:03:02;;;;;;;10.90;2.13;;;11.00;96.70;;;;;;5065594;28;20135;-70
2024/02/24 01:05:31;;;;;;;8.15;2.42;;;11.00;96.70;;;;;;5065079;28;20049;-70
2024/02/24 01:08:01;;;;;;;10.10;1.42;;;11.00;96.70;;;;;;5065391;28;20044;-70
2024/02/24 01:10:31;;;;;;;11.13;2.65;;;11.10;96.70;;;;;;5082215;28;20056;-70
2024/02/24 01:13:00;;;;;;;11.02;2.63;;;11.10;96.70;;;;;;5065621;28;20076;-70
2024/02/24 01:15:31;;;;;;;10.13;1.48;;;11.10;96.70;;;;;;5077321;28;20068;-70
2024/02/24 01:18:00;;;;;;;3.92;1.13;;;11.10;96.70;;;;;;5081183;28;20068;-70
2024/02/24 01:20:29;;;;;;;6.47;1.10;;;11.10;96.70;;;;;;5066684;28;20157;-70
2024/02/24 01:22:59;;;;;;;12.30;1.88;;;11.20;96.70;;;;;;5062458;28;20041;-70
2024/02/24 01:25:28;;;;;;;8.57;1.88;;;11.20;96.70;;;;;;5066207;28;20053;-70
2024/02/24 01:27:58;;;;;;;5.97;1.17;;;11.10;96.70;;;;;;5064148;28;20044;-71
2024/02/24 01:30:26;;;;;;;9.48;2.15;;;11.10;96.70;;;;;;5064989;28;20047;-70
2024/02/24 01:32:56;;;;;;;6.50;1.50;;;11.10;96.70;;;;;;5065208;28;20095;-70
2024/02/24 01:35:25;;;;;;;6.47;1.70;;;11.10;96.70;;;;;;5064900;28;20056;-70
2024/02/24 01:37:54;;;;;;;8.55;2.08;;;11.00;96.70;;;;;;5064274;28;20056;-71
2024/02/24 01:40:23;;;;;;;11.13;2.30;;;11.00;96.70;;;;;;5071599;28;20049;-70
2024/02/24 01:42:53;;;;;;;9.93;1.90;;;11.00;96.70;;;;;;5064010;28;20623;-70
2024/02/24 01:45:22;;;;;;;7.65;1.77;;;11.00;96.70;;;;;;5064570;28;20157;-70
2024/02/24 01:47:52;;;;;;;11.38;1.45;;;11.00;96.70;;;;;;5077940;28;20140;-70
2024/02/24 01:50:25;;;;;;;13.00;1.45;;;11.00;96.70;;;;;;5064391;28;20051;-70
2024/02/24 01:52:55;;;;;;;8.32;1.35;;;11.00;96.70;;;;;;5083507;28;20505;-70
2024/02/24 01:55:23;;;;;;;6.22;1.30;;;11.00;96.70;;;;;;5071958;28;20077;-70
2024/02/24 01:57:54;;;;;;;6.47;1.52;;;10.90;96.70;;;;;;5068999;28;20060;-70
2024/02/24 02:00:24;;;;;;;7.00;1.20;;;10.90;96.70;;;;;;5091585;28;20083;-70
2024/02/24 02:02:54;;;;;;;9.57;1.83;;;10.90;96.70;;;;;;5086472;28;20079;-70
2024/02/24 02:05:25;;;;;;;6.22;1.15;;;10.90;96.70;;;;;;5084999;28;20082;-70
2024/02/24 02:07:54;;;;;;;7.13;2.00;;;11.00;96.70;;;;;;5104515;27;20052;-70
2024/02/24 02:10:22;;;;;;;8.48;1.27;;;11.00;96.70;;;;;;5057507;28;20619;-70
2024/02/24 02:12:51;;;;;;;3.42;0.90;;;11.00;96.70;;;;;;5067882;28;20083;-70
2024/02/24 02:15:20;;;;;;;7.63;1.42;;;11.00;96.70;;;;;;5068559;28;20055;-70
2024/02/24 02:17:49;;;;;;;8.85;1.48;;;11.10;96.70;;;;;;5072390;28;20132;-70
2024/02/24 02:20:18;;;;;;;11.85;1.52;;;11.10;96.70;;;;;;5074582;28;20047;-70
2024/02/24 02:22:48;;;;;;;6.82;1.55;;;11.00;96.70;;;;;;5086706;28;20102;-70
2024/02/24 02:25:17;;;;;;;8.07;1.65;;;10.90;96.70;;;;;;5086556;28;20055;-70
2024/02/24 02:27:46;;;;;;;7.80;1.38;;;10.90;96.70;;;;;;5071633;28;20496;-70
2024/02/24 02:30:15;;;;;;;7.82;1.63;;;10.90;96.70;;;;;;5055164;28;20576;-70
2024/02/24 02:32:45;;;;;;;5.78;1.40;;;10.90;96.70;;;;;;5084117;28;20052;-70
2024/02/24 02:35:13;;;;;;;12.07;2.20;;;10.80;96.70;;;;;;5068718;28;20091;-70
2024/02/24 02:37:43;;;;;;;5.43;1.20;;;10.80;96.70;;;;;;5067097;28;20722;-70
2024/02/24 02:40:13;;;;;;;4.38;1.40;;;10.80;96.70;;;;;;5090172;28;20059;-70
2024/02/24 02:42:41;;;;;;;9.40;1.20;;;10.80;96.70;;;;;;5067379;28;20058;-70
2024/02/24 02:45:10;;;;;;;7.70;1.75;;;10.80;96.70;;;;;;5083152;28;20151;-70
2024/02/24 02:47:39;;;;;;;3.83;1.15;;;10.80;96.70;;;;;;5057156;28;20079;-70
2024/02/24 02:50:08;;;;;;;9.13;1.30;;;10.80;96.70;;;;;;5083635;28;20051;-70
2024/02/24 02:52:37;;;;;;;7.43;1.15;;;10.80;96.70;;;;;;5088737;28;20463;-70
2024/02/24 02:55:06;;;;;;;7.00;1.20;;;10.80;96.70;;;;;;5100149;28;20140;-70
2024/02/24 02:57:36;;;;;;;6.28;1.00;;;10.80;96.70;;;;;;5066934;28;20127;-70
2024/02/24 03:00:07;;;;;;;4.10;0.98;;;10.80;96.70;;;;;;5067489;28;20528;-70
2024/02/24 03:02:35;;;;;;;7.90;1.48;;;10.80;96.70;;;;;;5084663;28;20056;-70
2024/02/24 03:05:04;;;;;;;8.48;1.33;;;10.80;96.70;;;;;;5081530;28;20047;-69
2024/02/24 03:07:34;;;;;;;7.40;1.90;;;10.80;96.70;;;;;;5066604;28;20044;-70
2024/02/24 03:10:06;;;;;;;9.32;1.33;;;10.80;96.70;;;;;;5066826;28;20044;-70
2024/02/24 03:12:37;;;;;;;7.35;1.45;;;10.80;96.70;;;;;;5090390;28;20090;-70
2024/02/24 03:15:07;;;;;;;7.45;1.58;;;10.80;96.70;;;;;;5089656;28;20052;-70
2024/02/24 03:17:36;;;;;;;7.35;1.40;;;10.70;96.70;;;;;;5069692;28;20043;-70
2024/02/24 03:20:05;;;;;;;11.63;1.55;;;10.60;96.70;;;;;;5067293;28;20044;-70
2024/02/24 03:22:34;;;;;;;5.65;1.25;;;10.60;96.70;;;;;;5082070;28;20142;-70
2024/02/24 03:25:02;;;;;;;6.68;1.23;;;10.70;96.70;;;;;;5084846;28;20044;-70
2024/02/24 03:27:33;;;;;;;6.03;1.20;;;10.80;96.70;;;;;;5084350;28;20075;-70
2024/02/24 03:30:04;;;;;;;7.35;1.15;;;10.80;96.70;;;;;;5068340;28;20155;-70
2024/02/24 03:32:33;;;;;;;4.82;1.15;;;10.80;96.70;;;;;;5054241;28;20048;-70
2024/02/24 03:35:01;;;;;;;6.20;0.80;;;10.70;96.70;;;;;;5064040;28;20078;-70
2024/02/24 03:37:30;;;;;;;5.38;1.20;;;10.70;96.70;;;;;;5060445;28;20060;-70
2024/02/24 03:39:59;;;;;;;4.00;0.90;;;10.70;96.70;;;;;;5084842;28;20598;-70
2024/02/24 03:42:29;;;;;;;8.30;1.27;;;10.70;96.70;;;;;;5075507;28;20060;-70
2024/02/24 03:44:57;;;;;;;8.52;1.38;;;10.70;96.70;;;;;;5066308;28;20063;-70
2024/02/24 03:47:27;;;;;;;5.45;1.33;;;10.70;96.70;;;;;;5083817;28;20031;-70
2024/02/24 03:49:56;;;;;;;6.30;0.90;;;10.70;96.70;;;;;;5081822;28;20175;-70
2024/02/24 03:52:25;;;;;;;7.47;1.33;;;10.70;96.70;;;;;;5065947;28;20068;-70
2024/02/24 03:54:54;;;;;;;5.80;0.90;;;10.70;96.70;;;;;;5062915;28;20064;-70
2024/02/24 03:57:24;;;;;;;7.43;1.48;;;10.70;96.70;;;;;;5062288;28;20068;-70
2024/02/24 03:59:52;;;;;;;9.13;1.48;;;10.70;96.70;;;;;;5063171;28;20052;-70
2024/02/24 04:02:20;;;;;;;7.07;1.20;;;10.70;96.70;;;;;;5063726;28;20131;-70
2024/02/24 04:04:52;;;;;;;4.13;1.20;;;10.70;96.70;;;;;;5066422;28;20048;-70
2024/02/24 04:07:20;;;;;;;5.47;1.08;;;10.60;96.70;;;;;;5066092;28;20056;-70
2024/02/24 04:09:50;;;;;;;4.60;1.10;;;10.60;96.70;;;;;;5067166;28;20048;-70
2024/02/24 04:12:19;;;;;;;5.30;1.13;;;10.50;96.70;;;;;;5066198;28;20117;-70
2024/02/24 04:14:49;;;;;;;5.80;0.90;;;10.60;96.70;;;;;;5066244;28;20067;-70
2024/02/24 04:17:19;;;;;;;6.22;1.00;;;10.50;96.70;;;;;;5049770;28;20151;-70
2024/02/24 04:19:50;;;;;;;6.60;1.35;;;10.50;96.70;;;;;;5064774;28;20045;-70
2024/02/24 04:22:18;;;;;;;6.60;1.25;;;10.50;96.70;;;;;;5064869;28;20049;-70
2024/02/24 04:24:47;;;;;;;4.30;1.60;;;10.40;96.70;;;;;;5061373;28;20060;-70
2024/02/24 04:27:15;;;;;;;4.68;1.10;;;10.30;96.70;;;;;;5076548;28;20067;-70
2024/02/24 04:29:44;;;;;;;4.03;0.82;;;10.30;96.70;;;;;;5079579;28;20060;-70
2024/02/24 04:32:14;;;;;;;7.28;1.27;;;10.30;96.70;;;;;;5075745;28;20044;-70
2024/02/24 04:34:42;;;;;;;3.38;0.80;;;10.30;96.70;;;;;;5066583;28;20052;-70
2024/02/24 04:37:14;;;;;;;5.45;0.80;;;10.20;96.70;;;;;;5066794;28;20043;-70
2024/02/24 04:39:42;;;;;;;4.22;1.25;;;10.20;96.70;;;;;;5079805;28;20098;-70
2024/02/24 04:42:11;;;;;;;4.78;1.23;;;10.30;96.70;;;;;;5066460;28;20524;-70
2024/02/24 04:44:40;;;;;;;7.68;1.42;;;10.30;96.70;;;;;;5083347;28;20036;-70
2024/02/24 04:47:09;;;;;;;7.32;0.80;;;10.30;96.70;;;;;;5063455;28;20044;-70
2024/02/24 04:49:37;;;;;;;4.57;0.90;;;10.40;96.70;;;;;;5065957;28;20127;-70
2024/02/24 04:52:06;;;;;;;7.43;0.90;;;10.40;96.70;;;;;;5067773;28;20049;-70
2024/02/24 04:54:36;;;;;;;3.15;0.65;;;10.50;96.70;;;;;;5079591;28;20642;-70
2024/02/24 04:57:06;;;;;;;8.48;1.17;;;10.50;96.70;;;;;;5082513;28;20045;-70
2024/02/24 04:59:35;;;;;;;3.35;0.70;;;10.60;96.70;;;;;;5099327;28;20052;-70
2024/02/24 05:02:05;;;;;;;5.70;0.80;;;10.60;96.70;;;;;;5083735;28;20071;-70
2024/02/24 05:04:33;;;;;;;5.65;0.75;;;10.60;96.70;;;;;;5068868;28;20041;-70
2024/02/24 05:07:03;;;;;;;5.38;0.82;;;10.60;96.70;;;;;;5096191;27;20064;-70
2024/02/24 05:09:31;;;;;;;5.07;0.82;;;10.60;96.70;;;;;;5072963;28;20270;-70
2024/02/24 05:12:01;;;;;;;5.95;1.17;;;10.60;96.70;;;;;;5079223;28;20059;-70
2024/02/24 05:14:29;;;;;;;2.85;0.88;;;10.50;96.70;;;;;;5094323;28;20048;-70
2024/02/24 05:16:58;;;;;;;4.22;0.95;;;10.50;96.70;;;;;;5076787;28;20094;-70
2024/02/24 05:19:26;;;;;;;7.13;1.00;;;10.50;96.70;;;;;;5064806;28;20044;-71
2024/02/24 05:21:56;;;;;;;4.68;2.00;;;10.50;96.70;;;;;;5098615;27;20052;-70
2024/02/24 05:24:25;;;;;;;2.88;1.20;;;10.50;96.70;;;;;;5072650;28;20055;-70
2024/02/24 05:26:53;;;;;;;6.40;1.17;;;10.50;96.70;;;;;;5075840;28;20058;-70
2024/02/24 05:29:23;;;;;;;4.35;0.80;;;10.40;96.70;;;;;;5076425;28;20048;-70
2024/02/24 05:31:51;;;;;;;3.40;0.50;;;10.30;96.70;;;;;;5066762;28;20056;-70
2024/02/24 05:34:20;;;;;;;2.05;0.60;;;10.30;96.70;;;;;;5070969;28;20048;-70
2024/02/24 05:36:49;;;;;;;3.40;0.65;;;10.30;96.70;;;;;;5093576;28;20067;-70
2024/02/24 05:39:19;;;;;;;9.88;2.15;;;10.20;96.70;;;;;;5088065;28;20044;-70
2024/02/24 05:41:49;;;;;;;5.82;1.40;;;10.10;96.70;;;;;;5070454;28;20156;-70
2024/02/24 05:44:18;;;;;;;4.55;1.23;;;10.20;96.70;;;;;;5075307;28;20052;-70
2024/02/24 05:46:48;;;;;;;4.85;0.80;;;10.10;96.70;;;;;;5082452;28;20052;-70
2024/02/24 05:49:16;;;;;;;4.25;0.85;;;10.10;96.70;;;;;;5089329;28;20102;-70
2024/02/24 05:51:45;;;;;;;6.97;0.70;;;10.00;96.70;;;;;;5070401;28;20040;-70
2024/02/24 05:54:14;;;;;;;4.38;0.73;;;9.90;96.70;;;;;;5094444;27;20056;-70
2024/02/24 05:56:42;;;;;;;5.32;1.25;;;9.90;96.70;;;;;;5064499;28;20822;-70
2024/02/24 05:59:13;;;;;;;5.13;2.10;;;9.80;96.70;;;;;;5066041;28;20077;-70
2024/02/24 06:01:42;;;;;;;5.30;1.17;;;9.80;96.70;;;;;;5081001;28;20067;-70
2024/02/24 06:04:12;;;;;;;4.75;0.90;;;9.80;96.70;;;;;;5060959;28;20062;-70
2024/02/24 06:06:41;;;;;;;5.50;0.80;;;9.80;96.70;;;;;;5064424;28;20163;-70
2024/02/24 06:09:11;;;;;;;5.72;1.13;;;9.80;96.70;;;;;;5064305;28;20049;-70
2024/02/24 06:11:41;;;;;;;4.50;0.80;;;9.80;96.70;;;;;;5072719;28;20048;-70
2024/02/24 06:14:10;;;;;;;3.10;1.05;;;9.90;96.70;;;;;;5065066;28;20441;-70
2024/02/24 06:16:39;;;;;;;8.10;0.88;;;9.90;96.70;;;;;;5065214;28;20098;-70
2024/02/24 06:19:09;;;;;;;4.28;0.85;;;9.90;96.70;;;;;;5065853;28;20146;-70
2024/02/24 06:21:40;;;;;;;4.10;0.68;;;9.90;96.70;;;;;;5079374;28;20036;-70
2024/02/24 06:24:08;;;;;;;2.90;0.88;;;10.00;96.70;;;;;;5063735;28;20053;-70
2024/02/24 06:26:37;;;;;;;5.25;1.00;;;10.10;96.70;;;;;;5081519;28;20048;-70
2024/02/24 06:29:06;;;;;;;5.60;1.30;;;10.10;96.70;;;;;;5079808;28;20070;-70
2024/02/24 06:31:34;;;;;;;5.63;1.20;;;10.20;96.70;;;;;;5063033;28;20044;-70
2024/02/24 06:34:03;;;;;;;3.33;0.70;;;10.20;96.70;;;;;;5062765;28;20059;-70
2024/02/24 06:36:36;;;;;;;5.43;1.00;;;10.20;96.70;;;;;;5061047;28;20135;-70
2024/02/24 06:39:07;;;;;;;3.90;0.93;;;10.30;96.70;;;;;;5064370;28;20055;-71
2024/02/24 06:41:35;;;;;;;3.72;0.88;;;10.30;96.70;;;;;;5064646;28;20053;-71
2024/02/24 06:44:04;;;;;;;5.35;1.30;;;10.30;96.70;;;;;;5081037;28;20094;-71
2024/02/24 06:46:33;;;;;;;3.47;0.93;;;10.30;96.70;;;;;;5063222;28;20052;-71
2024/02/24 06:49:02;;;;;;;3.70;0.95;;;10.30;96.70;;;;;;5072425;28;20068;-72
2024/02/24 06:51:32;;;;;;;4.10;0.43;;;10.20;96.70;;;;;;5063447;28;20542;-72
2024/02/24 06:54:00;;;;;;;2.50;0.70;;;10.20;96.70;;;;;;5080483;28;20096;-72
2024/02/24 06:56:30;;;;;;;2.78;0.52;;;10.10;96.70;;;;;;5063814;28;20527;-72
2024/02/24 06:59:00;;;;;;;3.55;0.80;;;10.10;96.70;;;;;;5063876;28;20044;-72
2024/02/24 07:01:29;;;;;;;6.20;0.93;;;10.00;96.70;;;;;;5080560;28;20143;-71
2024/02/24 07:03:57;;;;;;;2.45;0.80;;;10.00;96.70;;;;;;5066581;28;20041;-71
2024/02/24 07:06:26;;;;;;;7.70;1.17;;;10.10;96.70;;;;;;5080857;28;20044;-72
2024/02/24 07:08:57;;;;;;;4.30;1.00;;;10.10;96.70;;;;;;5064654;28;20048;-71
2024/02/24 07:11:26;;;;;;;5.18;1.90;;;10.10;96.70;;;;;;5090273;28;20094;-71
2024/02/24 07:13:55;;;;;;;4.32;1.35;;;10.10;96.70;;;;;;5064316;28;20145;-71
2024/02/24 07:16:25;;;;;;;9.70;3.17;;;10.20;96.70;;;;;;5080984;28;20072;-71
2024/02/24 07:18:53;;;;;;;5.38;1.60;;;10.20;96.70;;;;;;5064691;28;20048;-71
2024/02/24 07:21:23;;;;;;;4.93;1.52;;;10.20;96.70;;;;;;5064686;28;20056;-71
2024/02/24 07:23:51;;;;;;;7.47;1.85;;;10.30;96.70;;;;;;5079714;28;20113;-71
2024/02/24 07:26:20;;;;;;;6.93;1.70;;;10.40;96.70;;;;;;5080688;28;20083;-71
2024/02/24 07:28:50;;;;;;;5.40;1.35;;;10.50;96.70;;;;;;5064665;28;20862;-71
2024/02/24 07:31:21;;;;;;;5.53;1.48;;;10.50;96.70;;;;;;5064670;28;20058;-71
2024/02/24 07:33:51;;;;;;;6.35;1.70;;;10.60;96.70;;;;;;5064617;28;20052;-70
2024/02/24 07:36:20;;;;;;;5.72;1.50;;;10.60;96.70;;;;;;5064889;28;20087;-70
2024/02/24 07:38:50;;;;;;;3.55;1.30;;;10.70;96.70;;;;;;5067605;28;20051;-70
2024/02/24 07:41:19;;;;;;;4.07;0.90;;;10.70;96.70;;;;;;5068199;28;20434;-71
2024/02/24 07:43:50;;;;;;;3.70;1.42;;;10.70;96.70;;;;;;5083884;28;20488;-71
2024/02/24 07:46:30;;;;;;;5.97;1.45;;;10.70;96.70;;;;;;5083281;28;20588;-71
2024/02/24 07:48:59;;;;;;;2.60;1.27;;;10.70;96.70;;;;;;5066541;28;20070;-71
2024/02/24 07:51:30;;;;;;;2.33;0.90;;;10.70;96.70;;;;;;5066972;28;20048;-71
2024/02/24 07:53:59;;;;;;;4.95;1.20;;;10.80;96.70;;;;;;5066892;28;20084;-71
2024/02/24 07:56:28;;;;;;;4.22;0.85;;;10.80;96.70;;;;;;5067086;28;20087;-71
2024/02/24 07:58:57;;;;;;;4.68;1.15;;;10.90;96.70;;;;;;5067352;28;20049;-71
2024/02/24 08:01:27;;;;;;;3.28;1.00;;;11.00;96.70;;;;;;5050417;28;20074;-71
2024/02/24 08:03:56;;;;;;;4.75;1.25;;;11.10;96.70;;;;;;5066148;28;21305;-71
2024/02/24 08:06:25;;;;;;;3.33;1.20;;;11.20;96.70;;;;;;5083453;28;20044;-71
2024/02/24 08:08:55;;;;;;;3.75;1.10;;;11.20;96.70;;;;;;5067100;28;20083;-71
2024/02/24 08:11:24;;;;;;;2.58;0.88;;;11.30;96.70;;;;;;5066655;28;20053;-71
2024/02/24 08:13:52;;;;;;;6.18;1.85;;;11.40;96.70;;;;;;5083298;28;20688;-71
2024/02/24 08:16:22;;;;;;;4.55;0.80;;;11.50;96.70;;;;;;5075780;28;20048;-70
2024/02/24 08:18:54;;;;;;;3.13;0.90;;;11.50;96.70;;;;;;5066668;28;20106;-71
2024/02/24 08:21:23;;;;;;;4.07;0.98;;;11.60;96.70;;;;;;5066446;28;20060;-71
2024/02/24 08:23:54;;;;;;;5.25;1.25;;;11.70;96.70;;;;;;5083666;28;20052;-70
2024/02/24 08:26:22;;;;;;;4.05;0.77;;;11.80;96.70;;;;;;5066421;28;20053;-71
2024/02/24 08:28:51;;;;;;;4.20;0.85;;;12.00;96.70;;;;;;5066591;28;20072;-71
2024/02/24 08:31:20;;;;;;;1.92;0.70;;;12.10;96.70;;;;;;5066305;28;20615;-71
2024/02/24 08:33:50;;;;;;;4.00;0.60;;;12.20;96.70;;;;;;5066778;28;20139;-71
2024/02/24 08:36:20;;;;;;;5.30;0.93;;;12.30;96.70;;;;;;5066571;28;20497;-71
2024/02/24 08:38:50;;;;;;;3.53;0.60;;;12.30;96.70;;;;;;5082721;28;20056;-71
2024/02/24 08:41:19;;;;;;;3.70;0.70;;;12.40;96.70;;;;;;5083193;28;20057;-71
2024/02/24 08:43:47;;;;;;;3.10;0.65;;;12.50;96.70;;;;;;5082551;28;20052;-71
2024/02/24 08:46:17;;;;;;;3.47;1.10;;;12.50;96.70;;;;;;5065590;28;20063;-71
2024/02/24 08:48:46;;;;;;;4.20;1.52;;;12.70;96.70;;;;;;5066100;28;20131;-71
2024/02/24 08:51:16;;;;;;;9.07;3.05;;;12.70;96.70;;;;;;5082164;28;20052;-71
2024/02/24 08:53:45;;;;;;;4.38;1.83;;;12.80;96.70;;;;;;5054635;28;20053;-71
2024/02/24 08:56:19;;;;;;;6.60;2.53;;;12.90;96.70;;;;;;5028929;28;20052;-71
2024/02/24 08:58:47;;;;;;;8.75;2.03;;;13.00;96.70;;;;;;5048219;28;20091;-71
2024/02/24 09:01:17;;;;;;;4.88;1.00;;;13.00;96.70;;;;;;5035994;28;20052;-71
2024/02/24 09:03:46;;;;;;;4.63;1.20;;;13.00;96.70;;;;;;5035538;28;20516;-70
2024/02/24 09:06:16;;;;;;;7.82;1.20;;;13.10;96.70;;;;;;5069103;28;20081;-71
2024/02/24 09:08:48;;;;;;;3.72;1.27;;;13.30;96.70;;;;;;5040815;28;20111;-71
2024/02/24 09:11:17;;;;;;;3.47;1.10;;;13.30;96.70;;;;;;5045330;28;20514;-71
2024/02/24 09:13:47;;;;;;;4.50;1.92;;;13.30;96.70;;;;;;5042598;28;20056;-71
2024/02/24 09:16:16;;;;;;;5.50;2.28;;;13.30;96.70;;;;;;5044907;28;20056;-71
2024/02/24 09:18:45;;;;;;;4.15;1.80;;;13.30;96.70;;;;;;5036941;28;20534;-71
2024/02/24 09:21:14;;;;;;;4.75;1.30;;;13.40;96.70;;;;;;5028175;28;20049;-71
2024/02/24 09:23:43;;;;;;;3.63;0.90;;;13.50;96.70;;;;;;5055896;28;20041;-71
2024/02/24 09:26:15;;;;;;;5.93;1.27;;;13.60;96.70;;;;;;5078104;28;20056;-71
2024/02/24 09:28:44;;;;;;;4.25;0.70;;;13.60;96.70;;;;;;5052138;28;20045;-71
2024/02/24 09:31:13;;;;;;;4.50;1.40;;;13.60;96.70;;;;;;5058846;28;20061;-71
2024/02/24 09:33:42;;;;;;;8.65;1.40;;;13.60;96.70;;;;;;5056050;28;20049;-71
2024/02/24 09:36:12;;;;;;;3.15;0.93;;;13.60;96.70;;;;;;5039143;28;20490;-71
2024/02/24 09:38:41;;;;;;;4.40;1.02;;;13.60;96.70;;;;;;5032345;28;20049;-71
2024/02/24 09:41:11;;;;;;;5.05;1.83;;;13.60;96.70;;;;;;5046860;28;20049;-71
2024/02/24 09:43:43;;;;;;;6.55;2.40;;;13.60;96.70;;;;;;5036281;28;20045;-71
2024/02/24 09:46:13;;;;;;;4.90;1.33;;;13.60;96.70;;;;;;5051026;28;20612;-71
2024/02/24 09:48:44;;;;;;;11.00;6.45;;;13.70;96.70;;;;;;5038338;28;20052;-70
2024/02/24 09:51:13;;;;;;;8.68;4.90;;;13.80;96.70;;;;;;5042615;28;20056;-70
2024/02/24 09:53:42;;;;;;;4.63;1.42;;;13.90;96.70;;;;;;5041523;28;20084;-71
2024/02/24 09:56:12;;;;;;;2.08;1.00;;;14.20;96.70;;;;;;5081940;28;20059;-70
2024/02/24 09:58:44;;;;;;;3.08;0.90;;;14.40;96.70;;;;;;5064426;28;20053;-70
2024/02/24 10:01:12;;;;;;;4.13;1.30;;;14.50;96.70;;;;;;5081756;28;20082;-71
2024/02/24 10:03:42;;;;;;;2.60;1.08;;;14.60;96.70;;;;;;5080981;28;20036;-71
2024/02/24 10:06:11;;;;;;;7.47;1.30;;;14.60;96.70;;;;;;5081272;28;20044;-71
2024/02/24 10:08:40;;;;;;;4.57;1.20;;;14.60;96.70;;;;;;5065233;28;20219;-71
2024/02/24 10:11:13;;;;;;;4.10;1.02;;;14.70;96.70;;;;;;5065822;28;20048;-70
2024/02/24 10:13:45;;;;;;;5.22;1.58;;;14.70;96.70;;;;;;5065258;28;20060;-71
2024/02/24 10:16:17;;;;;;;10.98;7.00;;;14.70;96.70;;;;;;5080572;28;20041;-70
2024/02/24 10:18:46;;;;;;;16.33;10.70;;;14.40;96.70;;;;;;5056541;28;20135;-70
2024/02/24 10:21:16;;;;;;;14.93;8.32;;;14.40;96.70;;;;;;5081229;28;20059;-71
2024/02/24 10:23:46;;;;;;;6.88;3.83;;;14.50;96.70;;;;;;5064768;28;20060;-70
2024/02/24 10:26:15;;;;;;;6.32;3.05;;;14.40;96.70;;;;;;5080571;28;20064;-70
2024/02/24 10:28:46;;;;;;;11.38;3.00;;;14.30;96.70;;;;;;5064574;28;20055;-71
2024/02/24 10:31:16;;;;;;;7.47;2.40;;;14.20;96.70;;;;;;5040149;28;20757;-71
2024/02/24 10:33:46;;;;;;;7.13;2.45;;;14.10;96.70;;;;;;5064437;28;20045;-70
2024/02/24 10:36:19;;;;;;;5.80;2.05;;;14.10;96.70;;;;;;5063409;28;20515;-71
2024/02/24 10:38:50;;;;;;;4.13;1.30;;;14.10;96.70;;;;;;5096097;28;20052;-70
2024/02/24 10:41:24;;;;;;;4.15;1.30;;;14.00;96.70;;;;;;5071410;28;20056;-70
2024/02/24 10:44:00;;;;;;;3.63;1.30;;;13.80;96.70;;;;;;5064233;28;20106;-70
2024/02/24 10:46:47;;;;;;;5.90;1.08;;;13.70;96.70;;;;;;5049875;28;20324;-70
2024/02/24 10:49:18;;;;;;;6.47;1.25;;;13.70;96.70;;;;;;5080164;28;20075;-70
2024/02/24 10:51:49;;;;;;;5.80;1.30;;;13.80;96.70;;;;;;5080058;28;20068;-69
2024/02/24 10:54:22;;;;;;;5.03;1.30;;;13.70;96.70;;;;;;5063617;28;20053;-70
2024/02/24 10:56:57;;;;;;;5.95;1.38;;;13.70;96.70;;;;;;5065597;28;20082;-70
2024/02/24 10:59:31;;;;;;;7.53;1.48;;;13.90;96.70;;;;;;5080213;28;20766;-70
2024/02/24 11:02:01;;;;;;;5.55;2.20;;;14.10;96.70;;;;;;5063966;28;20056;-70
2024/02/24 11:04:35;;;;;;;6.05;2.75;;;14.20;96.70;;;;;;5064440;28;20130;-70
2024/02/24 11:07:06;;;;;;;8.00;2.35;;;14.30;96.70;;;;;;5079783;28;20059;-70
2024/02/24 11:09:37;;;;;;;9.35;4.80;;;14.40;96.70;;;;;;5064005;28;20098;-70
2024/02/24 11:12:10;;;;;;;9.15;4.60;;;14.40;96.70;;;;;;5084855;28;20163;-70
2024/02/24 11:14:47;;;;;;;8.13;3.72;;;14.40;96.70;;;;;;5068287;28;20060;-70
2024/02/24 11:17:46;;;;;;;9.20;3.70;;;14.60;96.70;;;;;;5067811;28;20044;-70
2024/02/24 11:20:52;;;;;;;12.70;6.07;;;14.70;96.70;;;;;;5077457;28;20041;-70
2024/02/24 11:23:22;;;;;;;9.38;3.83;;;14.80;96.70;;;;;;5065193;28;20414;-70
2024/02/24 11:26:28;;;;;;;6.97;3.63;;;14.90;96.70;;;;;;5071478;28;20048;-71
2024/02/24 11:29:05;;;;;;;9.70;4.30;;;15.00;96.70;;;;;;5083620;28;20056;-73
2024/02/24 11:31:36;;;;;;;7.60;2.95;;;15.10;96.70;;;;;;5048146;28;20052;-72
2024/02/24 11:34:07;;;;;;;8.20;2.00;;;15.00;96.70;;;;;;5088558;28;20070;-72
2024/02/24 11:36:39;;;;;;;6.20;2.17;;;14.90;96.70;;;;;;5074598;28;20048;-72
2024/02/24 11:39:11;;;;;;;3.90;1.60;;;14.90;96.70;;;;;;5089681;28;20048;-71
2024/02/24 11:41:41;;;;;;;5.38;1.60;;;14.90;96.70;;;;;;5056480;28;20048;-72
2024/02/24 11:44:11;;;;;;;6.22;1.58;;;14.90;96.70;;;;;;5074004;28;20136;-72
2024/02/24 11:46:44;;;;;;;2.85;1.35;;;14.80;96.70;;;;;;5071340;28;20044;-73
2024/02/24 11:49:14;;;;;;;2.20;1.30;;;14.80;96.70;;;;;;5073069;28;20470;-73
2024/02/24 11:51:44;;;;;;;4.88;1.38;;;14.80;96.70;;;;;;5066281;28;20050;-71
2024/02/24 11:54:12;;;;;;;5.75;1.40;;;14.80;96.70;;;;;;5090062;28;20140;-72
2024/02/24 11:56:41;;;;;;;6.07;1.30;;;15.00;96.70;;;;;;5088530;28;20070;-72
2024/02/24 11:59:09;;;;;;;6.38;1.58;;;15.10;96.70;;;;;;5089712;28;20522;-72
2024/02/24 12:01:38;;;;;;;2.30;0.95;;;15.00;96.70;;;;;;5068562;28;20139;-71
2024/02/24 12:04:08;;;;;;;3.80;1.08;;;14.90;96.70;;;;;;5069575;28;20097;-71
2024/02/24 12:06:37;;;;;;;4.38;1.42;;;15.00;96.70;;;;;;5067881;28;20052;-71
2024/02/24 12:09:06;;;;;;;5.68;1.30;;;15.20;96.70;;;;;;5080632;28;20147;-71
2024/02/24 12:11:35;;;;;;;5.07;1.30;;;15.50;96.70;;;;;;5066176;28;20076;-71
2024/02/24 12:14:03;;;;;;;3.63;0.90;;;15.30;96.70;;;;;;5098472;28;20154;-72
2024/02/24 12:16:32;;;;;;;2.85;1.02;;;15.20;96.70;;;;;;5082959;28;20048;-70
2024/02/24 12:19:04;;;;;;;3.08;1.48;;;15.20;96.70;;;;;;5083383;28;20056;-70
2024/02/24 12:21:35;;;;;;;4.68;1.27;;;15.40;96.70;;;;;;5065642;28;20257;-70
2024/02/24 12:24:04;;;;;;;4.43;1.13;;;15.30;96.70;;;;;;5083448;28;20083;-71
2024/02/24 12:26:34;;;;;;;3.63;0.98;;;15.70;96.70;;;;;;5065017;28;20056;-71
2024/02/24 12:29:05;;;;;;;2.72;1.02;;;15.90;96.70;;;;;;5066134;28;20508;-70
2024/02/24 12:31:33;;;;;;;2.92;1.20;;;15.80;96.70;;;;;;5083092;28;20041;-70
2024/02/24 12:34:02;;;;;;;4.88;1.55;;;15.60;96.70;;;;;;5082456;28;20044;-70
2024/02/24 12:36:32;;;;;;;4.30;1.60;;;15.80;96.70;;;;;;5049098;28;20051;-70
2024/02/24 12:39:05;;;;;;;4.03;1.30;;;15.80;96.70;;;;;;5066379;28;20056;-70
2024/02/24 12:41:35;;;;;;;4.65;1.52;;;15.60;96.70;;;;;;5057071;28;20044;-71
2024/02/24 12:44:06;;;;;;;5.68;1.58;;;16.10;96.70;;;;;;5066950;28;20639;-71
2024/02/24 12:46:35;;;;;;;2.63;1.30;;;16.40;96.70;;;;;;5067005;28;20064;-72
2024/02/24 12:49:04;;;;;;;2.30;0.95;;;16.60;96.70;;;;;;5051723;28;20064;-71
2024/02/24 12:51:34;;;;;;;2.88;0.77;;;16.80;96.70;;;;;;5063546;28;20044;-70
2024/02/24 12:54:05;;;;;;;1.40;0.70;;;17.00;96.70;;;;;;5065409;28;20064;-71
2024/02/24 12:56:33;;;;;;;5.25;1.25;;;17.10;96.70;;;;;;5062618;28;20045;-71
2024/02/24 12:59:03;;;;;;;1.98;0.30;;;17.10;96.70;;;;;;5082094;28;20084;-72